Airport View

Enter AWOS ICAO identifier for current METAR.

ex. KFNL

KBEC 111955Z AUTO 19014G17KT 10SM CLR 10/M05 A3030 RMK AO2 T01001047

11 Dec 2019 20:13

Frequency: 119.45

Phone: 316-515-7116

Other Area AWOS: KAAO - KIAB - K3AU - K1K1

TAF AMD KIAB 111815Z 1118/1224 20012KT 9999 SKC QNH3021INS BECMG 1205/1206 17012KT 9999 SCT006 WS020/21060KT QNH3014INS BECMG 1211/1212 19012KT 9999 BKN027 510053 QNH3009INS BECMG 1217/1218 21015G25KT 9999 BKN020 QNH3010INS BECMG 1222/1223 VRB06KT 9999 SKC QNH3006INS TX10/1121Z TNM03/1211Z